createdAt,value
2022-10-31T00:01:36.568Z,1011.91
2022-10-31T00:04:43.830Z,1011.88
2022-10-31T00:07:51.101Z,1011.87
2022-10-31T00:10:58.921Z,1011.96
2022-10-31T00:14:06.269Z,1011.97
2022-10-31T00:17:13.533Z,1011.94
2022-10-31T00:20:21.278Z,1012.02
2022-10-31T00:23:28.642Z,1012.05
2022-10-31T00:26:35.811Z,1012.00
2022-10-31T00:29:43.404Z,1012.01
2022-10-31T00:32:50.228Z,1012.05
2022-10-31T00:35:57.873Z,1012.03
2022-10-31T00:39:05.459Z,1012.04
2022-10-31T00:42:12.240Z,1012.12
2022-10-31T00:45:19.891Z,1012.12
2022-10-31T00:48:27.527Z,1012.16
2022-10-31T00:51:34.327Z,1012.17
2022-10-31T00:54:41.885Z,1012.19
2022-10-31T00:57:48.622Z,1012.18
2022-10-31T01:00:56.464Z,1012.19
2022-10-31T01:04:04.364Z,1012.27
2022-10-31T01:07:11.234Z,1012.30
2022-10-31T01:10:18.560Z,1012.32
2022-10-31T01:13:26.191Z,1012.30
2022-10-31T01:16:33.233Z,1012.29
2022-10-31T01:19:41.039Z,1012.30
2022-10-31T01:22:48.459Z,1012.34
2022-10-31T01:25:55.677Z,1012.33
2022-10-31T01:29:03.383Z,1012.35
2022-10-31T01:32:10.537Z,1012.35
2022-10-31T01:35:17.842Z,1012.42
2022-10-31T01:38:25.338Z,1012.43
2022-10-31T01:41:32.570Z,1012.38
2022-10-31T01:44:39.852Z,1012.42
2022-10-31T01:47:49.207Z,1012.49
2022-10-31T01:50:56.584Z,1012.47
2022-10-31T01:54:03.900Z,1012.42
2022-10-31T01:57:11.336Z,1012.55
2022-10-31T02:00:19.250Z,1012.55
2022-10-31T02:03:26.533Z,1012.55
2022-10-31T02:06:33.696Z,1012.55
2022-10-31T02:09:41.253Z,1012.60
2022-10-31T02:12:48.539Z,1012.68
2022-10-31T02:15:55.930Z,1012.73
2022-10-31T02:19:03.395Z,1012.76
2022-10-31T02:22:10.471Z,1012.70
2022-10-31T02:25:18.248Z,1012.71
2022-10-31T02:28:25.743Z,1012.72
2022-10-31T02:31:32.700Z,1012.75
2022-10-31T02:34:40.283Z,1012.79
2022-10-31T02:37:47.187Z,1012.78
2022-10-31T02:40:54.729Z,1012.83
2022-10-31T02:44:02.338Z,1012.80
2022-10-31T02:47:09.368Z,1012.91
2022-10-31T02:50:16.838Z,1012.82
2022-10-31T02:53:24.615Z,1012.91
2022-10-31T02:56:31.582Z,1012.80
2022-10-31T02:59:39.370Z,1012.82
2022-10-31T03:02:46.981Z,1012.80
2022-10-31T03:05:53.871Z,1012.82
2022-10-31T03:09:01.827Z,1012.78
2022-10-31T03:12:09.156Z,1012.81
2022-10-31T03:15:16.564Z,1012.80
2022-10-31T03:18:24.275Z,1012.82
2022-10-31T03:21:31.512Z,1012.86
2022-10-31T03:24:38.734Z,1012.91
2022-10-31T03:27:45.965Z,1013.00
2022-10-31T03:30:53.604Z,1012.96
2022-10-31T03:34:00.875Z,1012.97
2022-10-31T03:37:08.242Z,1013.01
2022-10-31T03:40:16.084Z,1013.06
2022-10-31T03:46:30.759Z,1013.03
2022-10-31T03:49:38.487Z,1013.03
2022-10-31T03:52:45.459Z,1013.00
2022-10-31T03:55:53.165Z,1013.04
2022-10-31T03:59:00.639Z,1013.08
2022-10-31T04:02:07.701Z,1013.08
2022-10-31T04:05:15.428Z,1013.14
2022-10-31T04:08:23.172Z,1013.10
2022-10-31T04:11:30.278Z,1013.19
2022-10-31T04:14:38.131Z,1013.25
2022-10-31T04:17:45.686Z,1013.31
2022-10-31T04:20:52.747Z,1013.34
2022-10-31T04:23:59.961Z,1013.31
2022-10-31T04:27:06.822Z,1013.36
2022-10-31T04:30:14.447Z,1013.36
2022-10-31T04:33:22.441Z,1013.36
2022-10-31T04:36:29.468Z,1013.42
2022-10-31T04:39:37.186Z,1013.34
2022-10-31T04:42:45.075Z,1013.34
2022-10-31T04:45:51.962Z,1013.34
2022-10-31T04:48:59.669Z,1013.45
2022-10-31T04:52:07.117Z,1013.48
2022-10-31T04:55:14.652Z,1013.45
2022-10-31T04:58:22.425Z,1013.43
2022-10-31T05:01:29.569Z,1013.43
2022-10-31T05:04:37.443Z,1013.41
2022-10-31T05:07:44.825Z,1013.45
2022-10-31T05:10:51.821Z,1013.50
2022-10-31T05:13:59.934Z,1013.50
2022-10-31T05:17:07.514Z,1013.48
2022-10-31T05:20:15.078Z,1013.46
2022-10-31T05:23:22.624Z,1013.46
2022-10-31T05:26:29.976Z,1013.45
2022-10-31T05:29:37.513Z,1013.47
2022-10-31T05:32:45.401Z,1013.48
2022-10-31T05:35:52.793Z,1013.50
2022-10-31T05:39:00.159Z,1013.47
2022-10-31T05:42:07.252Z,1013.47
2022-10-31T05:45:15.245Z,1013.45
2022-10-31T05:48:22.436Z,1013.43
2022-10-31T05:51:29.490Z,1013.46
2022-10-31T05:54:37.412Z,1013.43
2022-10-31T05:57:44.796Z,1013.43
2022-10-31T06:00:52.299Z,1013.42
2022-10-31T06:03:59.957Z,1013.42
2022-10-31T06:07:07.713Z,1013.56
2022-10-31T06:10:15.172Z,1013.58
2022-10-31T06:13:22.819Z,1013.62
2022-10-31T06:16:30.234Z,1013.65
2022-10-31T06:19:38.004Z,1013.68
2022-10-31T06:22:45.857Z,1013.63
2022-10-31T06:25:52.956Z,1013.65
2022-10-31T06:29:03.134Z,1013.76
2022-10-31T06:32:01.359Z,1013.75
2022-10-31T06:35:08.293Z,1013.80
2022-10-31T06:38:15.727Z,1013.83
2022-10-31T06:41:23.047Z,1013.80
2022-10-31T06:44:30.301Z,1013.88
2022-10-31T06:47:50.843Z,1013.86
2022-10-31T06:50:42.713Z,1013.95
2022-10-31T06:53:50.204Z,1013.93
2022-10-31T06:56:57.855Z,1013.97
2022-10-31T07:00:05.333Z,1014.05
2022-10-31T07:03:12.711Z,1014.07
2022-10-31T07:06:20.085Z,1014.03
2022-10-31T07:09:27.669Z,1013.98
2022-10-31T07:12:35.027Z,1013.91
2022-10-31T07:15:42.396Z,1013.91
2022-10-31T07:18:49.847Z,1013.94
2022-10-31T07:21:57.252Z,1014.07
2022-10-31T07:25:04.629Z,1014.06
2022-10-31T07:28:12.370Z,1014.09
2022-10-31T07:31:19.386Z,1014.02
2022-10-31T07:34:26.974Z,1013.97
2022-10-31T07:37:34.673Z,1014.01
2022-10-31T07:40:41.726Z,1013.94
2022-10-31T07:43:49.506Z,1013.92
2022-10-31T07:46:57.286Z,1013.86
2022-10-31T07:50:04.188Z,1013.94
2022-10-31T07:53:12.042Z,1013.90
2022-10-31T07:56:19.568Z,1013.93
2022-10-31T07:59:26.623Z,1013.95
2022-10-31T08:02:34.522Z,1013.86
2022-10-31T08:05:41.554Z,1013.83
2022-10-31T08:08:49.184Z,1013.78
2022-10-31T08:11:57.154Z,1013.84
2022-10-31T08:15:04.219Z,1013.96
2022-10-31T08:18:12.216Z,1013.91
2022-10-31T08:21:20.241Z,1013.95
2022-10-31T08:24:27.552Z,1013.99
2022-10-31T08:27:35.664Z,1014.05
2022-10-31T08:30:45.657Z,1013.98
2022-10-31T08:33:52.805Z,1013.99
2022-10-31T08:37:00.716Z,1014.03
2022-10-31T08:40:08.120Z,1014.01
2022-10-31T08:43:15.817Z,1013.99
2022-10-31T08:46:23.465Z,1013.92
2022-10-31T08:49:30.935Z,1013.91
2022-10-31T08:53:03.494Z,1013.86
2022-10-31T08:55:42.741Z,1013.95
2022-10-31T08:58:50.512Z,1013.98
2022-10-31T09:01:58.267Z,1013.84
2022-10-31T09:05:05.306Z,1013.75
2022-10-31T09:08:16.398Z,1013.80
2022-10-31T09:11:14.028Z,1013.78
2022-10-31T09:14:21.060Z,1013.72
2022-10-31T09:17:28.792Z,1013.70
2022-10-31T09:20:35.777Z,1013.90
2022-10-31T09:23:43.280Z,1013.77
2022-10-31T09:26:50.846Z,1013.82
2022-10-31T09:29:58.150Z,1013.72
2022-10-31T09:33:05.443Z,1013.72
2022-10-31T09:36:12.927Z,1013.70
2022-10-31T09:39:20.159Z,1013.67
2022-10-31T09:42:27.873Z,1013.76
2022-10-31T09:45:34.892Z,1013.75
2022-10-31T09:48:42.573Z,1013.69
2022-10-31T09:51:52.959Z,1013.52
2022-10-31T09:55:00.077Z,1013.60
2022-10-31T09:58:07.514Z,1013.61
2022-10-31T10:01:15.345Z,1013.55
2022-10-31T10:04:22.233Z,1013.58
2022-10-31T10:07:29.804Z,1013.57
2022-10-31T10:10:36.948Z,1013.64
2022-10-31T10:13:44.260Z,1013.63
2022-10-31T10:16:52.114Z,1013.64
2022-10-31T10:17:47.994Z,1013.64
2022-10-31T10:18:54.435Z,1013.60
2022-10-31T10:19:37.556Z,1013.61
2022-10-31T10:20:54.523Z,1013.60
2022-10-31T10:21:38.028Z,1013.62
2022-10-31T10:22:42.804Z,1013.51
2022-10-31T10:23:25.963Z,1013.57
2022-10-31T10:24:09.079Z,1013.60
2022-10-31T10:24:54.905Z,1013.55
2022-10-31T10:25:38.374Z,1013.57
2022-10-31T10:26:43.166Z,1013.57
2022-10-31T10:28:03.106Z,1013.58
2022-10-31T10:31:11.990Z,1013.42
2022-10-31T10:34:19.229Z,1013.37
2022-10-31T10:36:49.728Z,1013.40
2022-10-31T10:37:53.592Z,1013.40
2022-10-31T10:40:53.486Z,1013.35
2022-10-31T10:43:57.529Z,1013.41
2022-10-31T10:47:04.504Z,1013.29
2022-10-31T10:50:11.826Z,1013.32
2022-10-31T10:53:19.637Z,1013.21
2022-10-31T10:56:26.883Z,1013.21
2022-10-31T10:59:34.138Z,1013.13
2022-10-31T11:02:42.873Z,1013.08
2022-10-31T11:05:52.272Z,1013.07
2022-10-31T11:08:59.561Z,1013.01
2022-10-31T11:12:07.004Z,1013.00
2022-10-31T11:15:13.938Z,1012.97
2022-10-31T11:18:18.565Z,1012.89
2022-10-31T11:21:26.486Z,1012.91
2022-10-31T11:24:33.405Z,1012.89
2022-10-31T11:27:40.996Z,1012.81
2022-10-31T11:30:48.164Z,1012.78
2022-10-31T11:33:55.385Z,1012.76
2022-10-31T11:37:02.548Z,1012.70
2022-10-31T11:40:09.935Z,1012.58
2022-10-31T11:43:17.103Z,1012.60
2022-10-31T11:46:24.450Z,1012.58
2022-10-31T11:49:31.277Z,1012.61
2022-10-31T11:52:38.875Z,1012.58
2022-10-31T11:55:46.235Z,1012.58
2022-10-31T11:58:53.397Z,1012.54
2022-10-31T12:02:01.001Z,1012.46
2022-10-31T12:05:08.247Z,1012.48
2022-10-31T12:08:15.384Z,1012.44
2022-10-31T12:11:23.300Z,1012.43
2022-10-31T12:14:30.538Z,1012.39
2022-10-31T12:17:38.008Z,1012.35
2022-10-31T12:20:45.202Z,1012.31
2022-10-31T12:23:52.204Z,1012.32
2022-10-31T12:26:59.635Z,1012.29
2022-10-31T12:30:06.886Z,1012.27
2022-10-31T12:33:15.003Z,1012.26
2022-10-31T12:36:21.981Z,1012.24
2022-10-31T12:39:29.589Z,1012.18
2022-10-31T12:42:36.701Z,1012.10
2022-10-31T12:45:43.845Z,1012.05
2022-10-31T12:48:55.491Z,1012.08
2022-10-31T12:51:54.365Z,1012.06
2022-10-31T12:55:01.907Z,1011.98
2022-10-31T12:58:09.367Z,1012.00
2022-10-31T13:01:16.342Z,1011.89
2022-10-31T13:04:23.911Z,1011.83
2022-10-31T13:07:31.643Z,1011.86
2022-10-31T13:10:38.531Z,1011.81
2022-10-31T13:13:46.284Z,1011.72
2022-10-31T13:16:53.480Z,1011.73
2022-10-31T13:20:00.715Z,1011.67
2022-10-31T13:23:18.146Z,1011.63
2022-10-31T13:26:12.565Z,1011.61
2022-10-31T13:29:20.132Z,1011.65
2022-10-31T13:32:27.687Z,1011.58
2022-10-31T13:35:34.578Z,1011.52
2022-10-31T13:38:42.139Z,1011.48
2022-10-31T13:41:49.367Z,1011.43
2022-10-31T13:44:56.520Z,1011.42
2022-10-31T13:48:04.399Z,1011.35
2022-10-31T13:51:12.288Z,1011.35
2022-10-31T13:54:19.553Z,1011.31
2022-10-31T13:57:30.295Z,1011.26
2022-10-31T14:00:30.746Z,1011.27
2022-10-31T14:04:03.616Z,1011.19
2022-10-31T14:06:42.806Z,1011.13
2022-10-31T14:09:50.449Z,1011.17
2022-10-31T14:12:57.618Z,1011.15
2022-10-31T14:16:04.814Z,1011.14
2022-10-31T14:19:12.822Z,1011.13
2022-10-31T14:22:19.850Z,1011.10
2022-10-31T14:25:27.546Z,1011.04
2022-10-31T14:28:35.157Z,1011.08
2022-10-31T14:31:43.686Z,1010.94
2022-10-31T14:34:51.488Z,1010.96
2022-10-31T14:37:59.247Z,1010.91
2022-10-31T14:41:06.755Z,1010.94
2022-10-31T14:44:14.392Z,1010.93
2022-10-31T14:47:21.466Z,1010.87
2022-10-31T14:50:29.141Z,1010.91
2022-10-31T14:53:36.994Z,1010.90
2022-10-31T14:56:43.999Z,1010.85
2022-10-31T14:59:51.787Z,1010.87
2022-10-31T15:03:00.004Z,1010.89
2022-10-31T15:06:07.352Z,1010.89
2022-10-31T15:09:14.638Z,1010.85
2022-10-31T15:12:23.370Z,1010.82
2022-10-31T15:15:30.352Z,1010.75
2022-10-31T15:18:38.544Z,1010.75
2022-10-31T15:21:45.453Z,1010.81
2022-10-31T15:24:53.577Z,1010.77
2022-10-31T15:28:01.974Z,1010.75
2022-10-31T15:31:09.216Z,1010.72
2022-10-31T15:34:16.828Z,1010.77
2022-10-31T15:37:23.876Z,1010.79
2022-10-31T15:40:31.278Z,1010.76
2022-10-31T15:43:39.063Z,1010.61
2022-10-31T15:46:46.169Z,1010.63
2022-10-31T15:49:53.779Z,1010.59
2022-10-31T15:53:02.409Z,1010.49
2022-10-31T15:56:09.607Z,1010.57
2022-10-31T15:59:16.920Z,1010.59
2022-10-31T16:02:25.196Z,1010.51
2022-10-31T16:05:32.835Z,1010.43
2022-10-31T16:08:40.777Z,1010.42
2022-10-31T16:11:48.021Z,1010.42
2022-10-31T16:14:55.069Z,1010.33
2022-10-31T16:18:02.822Z,1010.33
2022-10-31T16:21:10.085Z,1010.40
2022-10-31T16:24:17.188Z,1010.39
2022-10-31T16:27:24.637Z,1010.44
2022-10-31T16:30:31.962Z,1010.38
2022-10-31T16:33:39.303Z,1010.43
2022-10-31T16:36:46.649Z,1010.49
2022-10-31T16:39:54.046Z,1010.49
2022-10-31T16:43:01.376Z,1010.44
2022-10-31T16:46:08.868Z,1010.34
2022-10-31T16:49:15.990Z,1010.38
2022-10-31T16:52:23.446Z,1010.27
2022-10-31T16:55:30.855Z,1010.20
2022-10-31T16:58:38.137Z,1010.18
2022-10-31T17:01:45.581Z,1010.20
2022-10-31T17:04:55.837Z,1010.22
2022-10-31T17:07:53.540Z,1010.10
2022-10-31T17:11:01.381Z,1010.06
2022-10-31T17:14:09.327Z,1010.02
2022-10-31T17:17:16.512Z,1010.03
2022-10-31T17:20:23.723Z,1009.99
2022-10-31T17:23:31.554Z,1010.06
2022-10-31T17:26:38.525Z,1010.06
2022-10-31T17:29:46.392Z,1010.03
2022-10-31T17:32:53.955Z,1009.95
2022-10-31T17:36:00.847Z,1009.97
2022-10-31T17:39:08.358Z,1009.95
2022-10-31T17:42:15.629Z,1010.00
2022-10-31T17:45:22.568Z,1010.02
2022-10-31T17:48:30.330Z,1010.03
2022-10-31T17:51:37.552Z,1010.04
2022-10-31T17:54:45.393Z,1010.01
2022-10-31T17:57:52.987Z,1009.98
2022-10-31T18:01:00.227Z,1009.87
2022-10-31T18:04:07.044Z,1009.82
2022-10-31T18:07:14.297Z,1009.84
2022-10-31T18:10:21.643Z,1009.74
2022-10-31T18:13:28.965Z,1009.66
2022-10-31T18:19:43.692Z,1009.60
2022-10-31T18:22:50.717Z,1009.56
2022-10-31T18:25:57.980Z,1009.50
2022-10-31T18:29:05.429Z,1009.52
2022-10-31T18:32:12.656Z,1009.49
2022-10-31T18:35:19.491Z,1009.42
2022-10-31T18:38:27.211Z,1009.41
2022-10-31T18:41:34.212Z,1009.35
2022-10-31T18:44:41.418Z,1009.35
2022-10-31T18:47:48.917Z,1009.31
2022-10-31T18:50:56.211Z,1009.37
2022-10-31T18:54:03.517Z,1009.34
2022-10-31T18:57:10.556Z,1009.36
2022-10-31T19:00:17.968Z,1009.30
2022-10-31T19:03:26.476Z,1009.30
2022-10-31T19:06:33.743Z,1009.23
2022-10-31T19:09:41.220Z,1009.17
2022-10-31T19:12:48.523Z,1009.11
2022-10-31T19:15:55.585Z,1009.13
2022-10-31T19:19:02.463Z,1009.07
2022-10-31T19:22:09.870Z,1008.97
2022-10-31T19:25:18.068Z,1008.97
2022-10-31T19:28:25.428Z,1009.00
2022-10-31T19:31:32.920Z,1009.01
2022-10-31T19:34:40.065Z,1008.98
2022-10-31T19:37:48.643Z,1008.97
2022-10-31T19:40:56.343Z,1008.86
2022-10-31T19:44:03.170Z,1008.90
2022-10-31T19:47:10.755Z,1008.87
2022-10-31T19:50:18.100Z,1008.81
2022-10-31T19:53:25.750Z,1008.76
2022-10-31T19:56:33.200Z,1008.80
2022-10-31T19:59:40.594Z,1008.79
2022-10-31T20:02:48.148Z,1008.72
2022-10-31T20:05:55.626Z,1008.74
2022-10-31T20:09:02.716Z,1008.70
2022-10-31T20:12:09.809Z,1008.66
2022-10-31T20:15:17.026Z,1008.62
2022-10-31T20:18:25.105Z,1008.52
2022-10-31T20:21:32.343Z,1008.45
2022-10-31T20:24:39.457Z,1008.49
2022-10-31T20:27:47.125Z,1008.42
2022-10-31T20:30:54.534Z,1008.42
2022-10-31T20:34:01.675Z,1008.32
2022-10-31T20:37:09.119Z,1008.34
2022-10-31T20:40:16.240Z,1008.31
2022-10-31T20:43:23.298Z,1008.26
2022-10-31T20:46:30.786Z,1008.27
2022-10-31T20:49:37.580Z,1008.23
2022-10-31T20:52:45.091Z,1008.19
2022-10-31T20:55:52.142Z,1008.02
2022-10-31T20:58:58.923Z,1007.93
2022-10-31T21:02:06.625Z,1007.90
2022-10-31T21:05:13.923Z,1007.70
2022-10-31T21:08:20.664Z,1007.66
2022-10-31T21:11:28.163Z,1007.64
2022-10-31T21:14:35.271Z,1007.73
2022-10-31T21:17:42.516Z,1007.81
2022-10-31T21:20:49.917Z,1007.75
2022-10-31T21:23:56.696Z,1007.64
2022-10-31T21:27:06.267Z,1007.68
2022-10-31T21:30:05.251Z,1007.67
2022-10-31T21:33:12.113Z,1007.69
2022-10-31T21:36:19.627Z,1007.65
2022-10-31T21:39:27.002Z,1007.76
2022-10-31T21:42:33.783Z,1007.71
2022-10-31T21:45:41.383Z,1007.58
2022-10-31T21:48:48.622Z,1007.53
2022-10-31T21:51:55.854Z,1007.44
2022-10-31T21:55:03.485Z,1007.40
2022-10-31T21:58:10.602Z,1007.51
2022-10-31T22:01:17.802Z,1007.46
2022-10-31T22:04:25.309Z,1007.37
2022-10-31T22:07:32.478Z,1007.32
2022-10-31T22:10:39.540Z,1007.28
2022-10-31T22:13:46.606Z,1007.26
2022-10-31T22:16:53.553Z,1007.25
2022-10-31T22:20:00.481Z,1007.29
2022-10-31T22:23:07.633Z,1007.28
2022-10-31T22:26:15.189Z,1007.32
2022-10-31T22:29:22.468Z,1007.33
2022-10-31T22:32:29.703Z,1007.19
2022-10-31T22:35:37.073Z,1007.11
2022-10-31T22:38:43.958Z,1007.14
2022-10-31T22:41:51.718Z,1007.06
2022-10-31T22:44:59.269Z,1006.98
2022-10-31T22:48:06.109Z,1006.96
2022-10-31T22:51:13.710Z,1006.88
2022-10-31T22:54:21.241Z,1006.77
2022-10-31T22:57:28.012Z,1006.78
2022-10-31T23:00:35.552Z,1006.83
2022-10-31T23:03:42.417Z,1006.80
2022-10-31T23:06:49.755Z,1006.77
2022-10-31T23:09:57.285Z,1006.71
2022-10-31T23:13:03.997Z,1006.70
2022-10-31T23:16:11.604Z,1006.57
2022-10-31T23:19:18.868Z,1006.53
2022-10-31T23:22:25.878Z,1006.56
2022-10-31T23:25:33.071Z,1006.53
2022-10-31T23:28:40.120Z,1006.48
2022-10-31T23:31:47.738Z,1006.58
2022-10-31T23:34:54.919Z,1006.60
2022-10-31T23:38:02.297Z,1006.65
2022-10-31T23:41:09.823Z,1006.66
2022-10-31T23:44:16.703Z,1006.70
2022-10-31T23:47:24.286Z,1006.78
2022-10-31T23:50:31.887Z,1006.81
2022-10-31T23:53:38.670Z,1006.90
2022-10-31T23:56:45.874Z,1006.90
2022-10-31T23:59:53.007Z,1006.85
